createdAt,value
2023-01-13T00:00:51.225Z,100761.31
2023-01-13T00:03:23.430Z,100765.75
2023-01-13T00:05:50.477Z,100758.03
2023-01-13T00:08:17.276Z,100756.59
2023-01-13T00:10:48.358Z,100759.16
2023-01-13T00:13:15.723Z,100760.19
2023-01-13T00:15:43.044Z,100759.22
2023-01-13T00:18:09.879Z,100756.69
2023-01-13T00:20:36.894Z,100752.44
2023-01-13T00:23:04.445Z,100751.47
2023-01-13T00:25:31.513Z,100744.56
2023-01-13T00:27:58.289Z,100745.47
2023-01-13T00:30:25.341Z,100752.66
2023-01-13T00:32:52.718Z,100742.50
2023-01-13T00:35:19.750Z,100750.41
2023-01-13T00:37:46.487Z,100752.31
2023-01-13T00:40:14.068Z,100743.59
2023-01-13T00:42:59.788Z,100758.44
2023-01-13T00:45:26.801Z,100749.06
2023-01-13T00:47:53.570Z,100755.09
2023-01-13T00:50:20.607Z,100757.91
2023-01-13T00:52:47.364Z,100758.91
2023-01-13T00:55:14.402Z,100755.72
2023-01-13T00:57:41.226Z,100752.31
2023-01-13T01:00:08.788Z,100758.28
2023-01-13T01:02:35.592Z,100757.34
2023-01-13T01:05:02.643Z,100753.94
2023-01-13T01:07:29.452Z,100752.19
2023-01-13T01:09:56.462Z,100754.69
2023-01-13T01:12:23.238Z,100746.81
2023-01-13T01:14:50.253Z,100741.56
2023-01-13T01:17:17.016Z,100741.56
2023-01-13T01:19:44.265Z,100735.59
2023-01-13T01:22:11.080Z,100737.34
2023-01-13T01:24:38.116Z,100738.34
2023-01-13T01:27:04.852Z,100734.91
2023-01-13T01:29:32.017Z,100737.41
2023-01-13T01:31:59.232Z,100735.84
2023-01-13T01:34:26.291Z,100734.97
2023-01-13T01:36:53.044Z,100732.28
2023-01-13T01:39:20.063Z,100727.06
2023-01-13T01:42:06.760Z,100720.25
2023-01-13T01:44:42.882Z,100716.69
2023-01-13T01:47:14.192Z,100709.56
2023-01-13T01:49:42.551Z,100718.28
2023-01-13T01:52:14.565Z,100716.75
2023-01-13T01:54:47.988Z,100717.72
2023-01-13T01:57:20.070Z,100711.47
2023-01-13T01:59:47.237Z,100714.00
2023-01-13T02:02:14.056Z,100708.88
2023-01-13T02:04:50.792Z,100711.50
2023-01-13T02:07:23.838Z,100698.41
2023-01-13T02:09:52.885Z,100703.53
2023-01-13T02:12:34.734Z,100701.94
2023-01-13T02:15:06.964Z,100709.59
2023-01-13T02:18:20.686Z,100706.97
2023-01-13T02:21:09.589Z,100704.50
2023-01-13T02:24:02.978Z,100707.00
2023-01-13T02:26:57.959Z,100700.25
2023-01-13T02:30:06.077Z,100693.28
2023-01-13T02:32:59.663Z,100690.47
2023-01-13T02:35:35.491Z,100680.56
2023-01-13T02:38:03.572Z,100686.81
2023-01-13T02:40:38.671Z,100684.78
2023-01-13T02:43:41.885Z,100680.75
2023-01-13T02:46:15.168Z,100681.75
2023-01-13T02:48:45.842Z,100689.56
2023-01-13T02:51:17.403Z,100680.09
2023-01-13T02:54:11.168Z,100680.72
2023-01-13T02:56:42.812Z,100679.00
2023-01-13T02:59:11.747Z,100675.00
2023-01-13T03:01:38.707Z,100670.69
2023-01-13T03:04:14.480Z,100675.25
2023-01-13T03:06:59.692Z,100665.63
2023-01-13T03:09:33.099Z,100662.81
2023-01-13T03:12:15.802Z,100668.13
2023-01-13T03:14:56.308Z,100657.53
2023-01-13T03:17:41.764Z,100656.56
2023-01-13T03:20:18.671Z,100661.06
2023-01-13T03:23:05.724Z,100658.44
2023-01-13T03:25:37.207Z,100660.19
2023-01-13T03:28:12.826Z,100653.25
2023-01-13T03:30:45.078Z,100660.16
2023-01-13T03:33:22.540Z,100648.69
2023-01-13T03:35:57.882Z,100653.59
2023-01-13T03:38:33.942Z,100650.97
2023-01-13T03:41:25.189Z,100658.06
2023-01-13T03:44:24.360Z,100644.13
2023-01-13T03:47:16.342Z,100640.09
2023-01-13T03:49:58.725Z,100633.22
2023-01-13T03:52:32.022Z,100635.91
2023-01-13T03:55:08.429Z,100640.09
2023-01-13T03:57:42.991Z,100639.25
2023-01-13T04:00:12.240Z,100638.44
2023-01-13T04:02:50.458Z,100639.31
2023-01-13T04:05:18.485Z,100647.28
2023-01-13T04:07:52.830Z,100649.94
2023-01-13T04:10:34.462Z,100644.50
2023-01-13T04:13:12.631Z,100656.72
2023-01-13T04:15:42.920Z,100640.81
2023-01-13T04:18:24.671Z,100641.97
2023-01-13T04:20:53.764Z,100652.50
2023-01-13T04:23:22.153Z,100649.00
2023-01-13T04:25:49.557Z,100648.69
2023-01-13T04:28:17.727Z,100655.25
2023-01-13T04:30:45.507Z,100660.78
2023-01-13T04:33:13.643Z,100660.78
2023-01-13T04:35:40.864Z,100652.81
2023-01-13T04:38:11.032Z,100661.13
2023-01-13T04:40:38.841Z,100664.09
2023-01-13T04:43:06.023Z,100659.66
2023-01-13T04:45:32.862Z,100657.59
2023-01-13T04:48:00.352Z,100654.44
2023-01-13T04:50:27.325Z,100659.81
2023-01-13T04:52:54.737Z,100656.47
2023-01-13T04:55:23.177Z,100654.59
2023-01-13T04:57:50.402Z,100662.38
2023-01-13T05:00:19.912Z,100660.78
2023-01-13T05:02:49.762Z,100663.69
2023-01-13T05:05:16.898Z,100653.91
2023-01-13T05:07:44.092Z,100661.66
2023-01-13T05:10:11.726Z,100664.25
2023-01-13T05:12:57.273Z,100666.25
2023-01-13T05:15:42.739Z,100671.53
2023-01-13T05:18:10.043Z,100660.91
2023-01-13T05:20:36.922Z,100677.44
2023-01-13T05:23:22.534Z,100678.41
2023-01-13T05:25:49.819Z,100669.34
2023-01-13T05:28:17.009Z,100672.06
2023-01-13T05:30:46.214Z,100680.16
2023-01-13T05:33:15.682Z,100680.94
2023-01-13T05:35:45.145Z,100687.25
2023-01-13T05:38:13.025Z,100679.50
2023-01-13T05:40:59.643Z,100675.13
2023-01-13T05:43:27.610Z,100677.25
2023-01-13T05:46:11.418Z,100672.34
2023-01-13T05:48:41.345Z,100677.72
2023-01-13T05:51:11.641Z,100674.34
2023-01-13T05:53:40.886Z,100676.97
2023-01-13T05:56:08.724Z,100677.25
2023-01-13T05:58:35.966Z,100671.78
2023-01-13T06:01:08.412Z,100674.56
2023-01-13T06:03:36.340Z,100677.72
2023-01-13T06:06:04.477Z,100683.06
2023-01-13T06:08:32.406Z,100686.56
2023-01-13T06:10:59.891Z,100676.34
2023-01-13T06:13:27.126Z,100684.28
2023-01-13T06:15:59.138Z,100680.91
2023-01-13T06:18:26.952Z,100687.81
2023-01-13T06:20:53.842Z,100685.22
2023-01-13T06:23:21.027Z,100687.97
2023-01-13T06:26:12.044Z,100684.56
2023-01-13T06:28:39.187Z,100686.97
2023-01-13T06:31:08.707Z,100688.78
2023-01-13T06:33:48.929Z,100689.59
2023-01-13T06:36:22.508Z,100680.00
2023-01-13T06:38:54.862Z,100688.66
2023-01-13T06:41:42.026Z,100693.00
2023-01-13T06:44:09.383Z,100693.06
2023-01-13T06:46:36.495Z,100699.22
2023-01-13T06:49:03.790Z,100698.09
2023-01-13T06:51:30.647Z,100700.72
2023-01-13T06:53:57.692Z,100701.75
2023-01-13T06:56:24.442Z,100705.19
2023-01-13T06:58:51.785Z,100704.16
2023-01-13T07:01:18.975Z,100705.72
2023-01-13T07:03:46.195Z,100704.75
2023-01-13T07:06:13.316Z,100707.44
2023-01-13T07:08:40.367Z,100704.00
2023-01-13T07:11:07.292Z,100713.72
2023-01-13T07:13:56.017Z,100705.59
2023-01-13T07:16:24.354Z,100714.16
2023-01-13T07:18:51.537Z,100706.34
2023-01-13T07:21:20.020Z,100700.13
2023-01-13T07:23:47.979Z,100703.50
2023-01-13T07:26:15.811Z,100703.47
2023-01-13T07:28:42.961Z,100706.72
2023-01-13T07:31:16.219Z,100698.22
2023-01-13T07:33:43.747Z,100709.94
2023-01-13T07:36:10.859Z,100709.69
2023-01-13T07:38:39.926Z,100701.91
2023-01-13T07:41:25.801Z,100702.72
2023-01-13T07:43:52.829Z,100699.94
2023-01-13T07:46:19.632Z,100719.06
2023-01-13T07:48:48.394Z,100710.06
2023-01-13T07:51:15.159Z,100715.19
2023-01-13T07:53:42.325Z,100712.44
2023-01-13T07:56:09.379Z,100709.31
2023-01-13T07:58:37.383Z,100722.00
2023-01-13T08:01:09.007Z,100723.06
2023-01-13T08:03:36.160Z,100721.03
2023-01-13T08:06:03.019Z,100724.16
2023-01-13T08:08:30.154Z,100733.69
2023-01-13T08:11:01.615Z,100732.22
2023-01-13T08:13:28.783Z,100741.84
2023-01-13T08:16:07.007Z,100744.63
2023-01-13T08:18:35.318Z,100739.31
2023-01-13T08:21:07.989Z,100740.16
2023-01-13T08:23:36.081Z,100742.81
2023-01-13T08:26:05.439Z,100744.56
2023-01-13T08:28:33.007Z,100746.31
2023-01-13T08:31:05.060Z,100747.09
2023-01-13T08:33:32.479Z,100750.31
2023-01-13T08:36:03.345Z,100755.81
2023-01-13T08:38:30.731Z,100747.84
2023-01-13T08:40:57.799Z,100747.94
2023-01-13T08:43:24.903Z,100749.72
2023-01-13T08:45:59.902Z,100749.44
2023-01-13T08:48:31.300Z,100743.03
2023-01-13T08:51:07.275Z,100751.75
2023-01-13T08:53:35.040Z,100752.03
2023-01-13T08:56:01.875Z,100752.84
2023-01-13T08:58:29.051Z,100749.69
2023-01-13T09:00:56.075Z,100752.38
2023-01-13T09:03:23.244Z,100758.41
2023-01-13T09:05:50.010Z,100763.84
2023-01-13T09:08:17.180Z,100756.97
2023-01-13T09:10:44.123Z,100754.44
2023-01-13T09:13:13.863Z,100755.22
2023-01-13T09:15:43.752Z,100761.41
2023-01-13T09:18:12.675Z,100758.72
2023-01-13T09:20:40.073Z,100758.78
2023-01-13T09:23:10.298Z,100762.53
2023-01-13T09:25:38.051Z,100759.53
2023-01-13T09:28:05.851Z,100742.81
2023-01-13T09:30:32.673Z,100754.97
2023-01-13T09:33:18.540Z,100758.69
2023-01-13T09:35:45.353Z,100745.25
2023-01-13T09:38:12.417Z,100758.41
2023-01-13T09:40:41.571Z,100765.41
2023-01-13T09:43:36.745Z,100756.28
2023-01-13T09:46:47.665Z,100752.53
2023-01-13T09:49:22.967Z,100744.72
2023-01-13T09:52:03.053Z,100750.63
2023-01-13T09:54:51.419Z,100744.97
2023-01-13T09:57:20.061Z,100746.84
2023-01-13T09:59:48.155Z,100750.31
2023-01-13T10:02:37.965Z,100745.19
2023-01-13T10:05:32.300Z,100757.28
2023-01-13T10:08:11.381Z,100742.56
2023-01-13T10:10:42.902Z,100742.31
2023-01-13T10:13:20.199Z,100737.06
2023-01-13T10:16:03.189Z,100742.25
2023-01-13T10:18:43.671Z,100741.69
2023-01-13T10:21:31.973Z,100743.47
2023-01-13T10:24:29.524Z,100742.28
2023-01-13T10:27:04.433Z,100739.59
2023-01-13T10:29:34.678Z,100748.03
2023-01-13T10:32:01.834Z,100748.78
2023-01-13T10:34:29.741Z,100743.66
2023-01-13T10:37:02.912Z,100747.44
2023-01-13T10:39:43.516Z,100735.97
2023-01-13T10:42:28.538Z,100724.41
2023-01-13T10:45:00.821Z,100714.72
2023-01-13T10:47:33.444Z,100722.34
2023-01-13T10:50:09.803Z,100717.56
2023-01-13T10:52:42.916Z,100716.34
2023-01-13T10:55:37.082Z,100712.91
2023-01-13T10:58:36.229Z,100710.44
2023-01-13T11:01:05.892Z,100694.59
2023-01-13T11:03:42.995Z,100687.84
2023-01-13T11:06:20.344Z,100688.06
2023-01-13T11:08:49.863Z,100688.41
2023-01-13T11:11:40.320Z,100679.50
2023-01-13T11:14:36.885Z,100690.09
2023-01-13T11:17:18.519Z,100677.25
2023-01-13T11:19:55.596Z,100674.97
2023-01-13T11:22:47.301Z,100669.03
2023-01-13T11:25:33.711Z,100665.22
2023-01-13T11:28:15.773Z,100659.47
2023-01-13T11:30:55.140Z,100663.59
2023-01-13T11:33:32.668Z,100665.03
2023-01-13T11:36:09.156Z,100671.09
2023-01-13T11:38:46.140Z,100664.25
2023-01-13T11:41:31.905Z,100667.97
2023-01-13T11:44:07.619Z,100665.63
2023-01-13T11:46:34.906Z,100660.00
2023-01-13T11:49:04.689Z,100650.94
2023-01-13T11:51:43.414Z,100651.50
2023-01-13T11:54:10.144Z,100647.91
2023-01-13T11:56:55.866Z,100636.53
2023-01-13T12:00:01.947Z,100627.03
2023-01-13T12:02:52.328Z,100618.63
2023-01-13T12:05:41.199Z,100607.38
2023-01-13T12:08:11.074Z,100608.25
2023-01-13T12:10:46.589Z,100598.19
2023-01-13T12:13:47.112Z,100588.81
2023-01-13T12:16:27.605Z,100588.00
2023-01-13T12:19:07.542Z,100589.16
2023-01-13T12:21:40.982Z,100594.66
2023-01-13T12:24:22.934Z,100586.84
2023-01-13T12:26:57.131Z,100585.75
2023-01-13T12:29:35.102Z,100582.06
2023-01-13T12:32:05.422Z,100571.63
2023-01-13T12:34:57.125Z,100579.72
2023-01-13T12:37:39.818Z,100590.09
2023-01-13T12:40:41.374Z,100600.22
2023-01-13T12:43:41.924Z,100599.72
2023-01-13T12:46:22.807Z,100591.97
2023-01-13T12:48:56.873Z,100588.81
2023-01-13T12:51:29.653Z,100593.72
2023-01-13T12:53:56.677Z,100599.06
2023-01-13T12:56:43.814Z,100591.41
2023-01-13T12:59:19.866Z,100587.59
2023-01-13T13:02:08.378Z,100582.75
2023-01-13T13:04:51.763Z,100586.00
2023-01-13T13:07:30.634Z,100590.31
2023-01-13T13:10:06.198Z,100591.78
2023-01-13T13:13:00.855Z,100594.16
2023-01-13T13:15:31.782Z,100593.31
2023-01-13T13:18:06.129Z,100598.25
2023-01-13T13:21:09.114Z,100594.69
2023-01-13T13:24:03.980Z,100607.09
2023-01-13T13:26:39.278Z,100598.56
2023-01-13T13:29:28.340Z,100596.63
2023-01-13T13:32:07.286Z,100598.97
2023-01-13T13:34:53.055Z,100606.47
2023-01-13T13:38:08.396Z,100599.00
2023-01-13T13:41:00.969Z,100587.25
2023-01-13T13:43:48.223Z,100584.38
2023-01-13T13:46:42.393Z,100593.59
2023-01-13T13:49:09.289Z,100582.16
2023-01-13T13:51:45.283Z,100594.91
2023-01-13T13:54:16.303Z,100590.47
2023-01-13T13:56:45.710Z,100596.50
2023-01-13T13:59:19.032Z,100602.03
2023-01-13T14:01:53.620Z,100604.91
2023-01-13T14:04:25.821Z,100611.72
2023-01-13T14:06:56.115Z,100615.09
2023-01-13T14:09:25.489Z,100617.72
2023-01-13T14:11:56.835Z,100621.00
2023-01-13T14:14:24.557Z,100615.72
2023-01-13T14:16:52.450Z,100615.94
2023-01-13T14:19:33.244Z,100629.88
2023-01-13T14:22:02.500Z,100619.06
2023-01-13T14:24:31.127Z,100618.00
2023-01-13T14:27:19.054Z,100618.91
2023-01-13T14:29:46.495Z,100610.63
2023-01-13T14:32:19.373Z,100611.72
2023-01-13T14:34:49.062Z,100606.94
2023-01-13T14:37:28.880Z,100608.88
2023-01-13T14:39:56.020Z,100595.81
2023-01-13T14:42:24.138Z,100601.69
2023-01-13T14:44:55.651Z,100608.50
2023-01-13T14:47:32.254Z,100611.84
2023-01-13T14:50:05.326Z,100621.25
2023-01-13T14:52:39.629Z,100617.06
2023-01-13T14:55:10.201Z,100621.50
2023-01-13T14:57:41.405Z,100638.03
2023-01-13T15:00:14.382Z,100625.81
2023-01-13T15:02:57.244Z,100623.31
2023-01-13T15:05:27.552Z,100620.72
2023-01-13T15:08:23.939Z,100605.47
2023-01-13T15:11:08.071Z,100606.38
2023-01-13T15:13:45.438Z,100605.56
2023-01-13T15:16:27.399Z,100602.50
2023-01-13T15:18:58.096Z,100610.53
2023-01-13T15:21:25.368Z,100610.22
2023-01-13T15:23:53.000Z,100611.25
2023-01-13T15:26:26.380Z,100604.47
2023-01-13T15:28:55.633Z,100600.31
2023-01-13T15:31:24.233Z,100602.78
2023-01-13T15:33:51.930Z,100606.19
2023-01-13T15:36:31.350Z,100611.66
2023-01-13T15:39:00.880Z,100611.06
2023-01-13T15:41:46.784Z,100612.94
2023-01-13T15:44:34.480Z,100607.78
2023-01-13T15:47:09.901Z,100614.91
2023-01-13T15:49:43.997Z,100614.75
2023-01-13T15:52:21.595Z,100618.16
2023-01-13T15:54:53.094Z,100621.44
2023-01-13T15:57:24.889Z,100631.69
2023-01-13T15:59:57.878Z,100623.69
2023-01-13T16:02:27.591Z,100630.13
2023-01-13T16:04:58.025Z,100633.66
2023-01-13T16:07:27.206Z,100632.97
2023-01-13T16:10:01.823Z,100634.97
2023-01-13T16:12:29.372Z,100629.63
2023-01-13T16:14:57.084Z,100623.09
2023-01-13T16:17:29.564Z,100626.78
2023-01-13T16:19:57.240Z,100623.69
2023-01-13T16:22:24.480Z,100627.81
2023-01-13T16:24:52.288Z,100629.25
2023-01-13T16:27:21.086Z,100626.59
2023-01-13T16:29:52.059Z,100619.69
2023-01-13T16:32:20.966Z,100623.25
2023-01-13T16:34:49.340Z,100621.44
2023-01-13T16:37:25.264Z,100627.50
2023-01-13T16:39:55.376Z,100621.44
2023-01-13T16:42:25.468Z,100624.13
2023-01-13T16:44:53.144Z,100622.41
2023-01-13T16:47:20.457Z,100617.84
2023-01-13T16:49:50.611Z,100616.75
2023-01-13T16:52:30.075Z,100615.38
2023-01-13T16:54:57.797Z,100601.63
2023-01-13T16:57:27.607Z,100598.91
2023-01-13T17:00:11.710Z,100599.09
2023-01-13T17:02:39.657Z,100603.81
2023-01-13T17:05:13.549Z,100613.16
2023-01-13T17:07:42.723Z,100609.06
2023-01-13T17:10:21.461Z,100603.16
2023-01-13T17:12:51.686Z,100623.94
2023-01-13T17:15:23.879Z,100630.44
2023-01-13T17:17:57.260Z,100628.84
2023-01-13T17:20:24.539Z,100610.50
2023-01-13T17:23:01.597Z,100613.97
2023-01-13T17:25:28.890Z,100619.91
2023-01-13T17:27:59.068Z,100633.22
2023-01-13T17:30:26.222Z,100636.00
2023-01-13T17:32:53.917Z,100636.66
2023-01-13T17:35:24.700Z,100638.19
2023-01-13T17:37:53.636Z,100625.81
2023-01-13T17:40:23.546Z,100629.25
2023-01-13T17:42:53.396Z,100630.13
2023-01-13T17:45:20.615Z,100631.81
2023-01-13T17:47:51.211Z,100639.53
2023-01-13T17:50:21.112Z,100641.25
2023-01-13T17:52:48.781Z,100656.06
2023-01-13T17:55:16.124Z,100657.78
2023-01-13T17:57:45.964Z,100642.09
2023-01-13T18:00:13.640Z,100646.31
2023-01-13T18:02:45.806Z,100636.00
2023-01-13T18:05:13.118Z,100645.56
2023-01-13T18:07:40.785Z,100648.22
2023-01-13T18:10:08.618Z,100648.22
2023-01-13T18:12:36.263Z,100641.94
2023-01-13T18:15:03.776Z,100656.00
2023-01-13T18:17:31.397Z,100651.59
2023-01-13T18:20:17.367Z,100655.03
2023-01-13T18:23:03.840Z,100664.66
2023-01-13T18:25:51.395Z,100659.59
2023-01-13T18:28:19.036Z,100657.91
2023-01-13T18:30:47.556Z,100661.47
2023-01-13T18:33:14.941Z,100661.41
2023-01-13T18:35:42.102Z,100663.91
2023-01-13T18:38:12.743Z,100662.09
2023-01-13T18:40:39.903Z,100658.50
2023-01-13T18:43:07.533Z,100657.81
2023-01-13T18:45:34.746Z,100659.53
2023-01-13T18:48:04.527Z,100660.38
2023-01-13T18:50:32.354Z,100665.59
2023-01-13T18:53:00.915Z,100670.84
2023-01-13T18:55:28.794Z,100664.78
2023-01-13T18:57:56.821Z,100668.97
2023-01-13T19:00:25.275Z,100670.78
2023-01-13T19:05:38.267Z,100675.16
2023-01-13T19:08:06.312Z,100680.19
2023-01-13T19:10:33.416Z,100671.34
2023-01-13T19:13:01.618Z,100676.81
2023-01-13T19:15:28.500Z,100672.00
2023-01-13T19:17:55.720Z,100666.84
2023-01-13T19:20:22.507Z,100669.50
2023-01-13T19:22:54.193Z,100664.47
2023-01-13T19:25:21.133Z,100674.25
2023-01-13T19:27:48.306Z,100685.50
2023-01-13T19:30:15.123Z,100691.88
2023-01-13T19:32:42.231Z,100693.75
2023-01-13T19:35:09.248Z,100697.41
2023-01-13T19:37:37.001Z,100687.88
2023-01-13T19:40:09.190Z,100698.88
2023-01-13T19:42:55.208Z,100704.28
2023-01-13T19:45:28.278Z,100703.34
2023-01-13T19:47:57.135Z,100706.66
2023-01-13T19:50:24.849Z,100708.47
2023-01-13T19:52:52.995Z,100711.88
2023-01-13T19:55:20.337Z,100714.66
2023-01-13T19:57:47.894Z,100732.28
2023-01-13T20:00:20.357Z,100732.56
2023-01-13T20:02:49.622Z,100744.78
2023-01-13T20:05:21.322Z,100756.41
2023-01-13T20:07:50.063Z,100764.19
2023-01-13T20:10:18.243Z,100762.28
2023-01-13T20:12:45.804Z,100746.19
2023-01-13T20:15:13.380Z,100733.34
2023-01-13T20:17:41.661Z,100738.63
2023-01-13T20:20:15.836Z,100743.44
2023-01-13T20:22:45.298Z,100731.75
2023-01-13T20:25:17.155Z,100717.88
2023-01-13T20:27:46.853Z,100740.88
2023-01-13T20:30:14.575Z,100742.97
2023-01-13T20:32:43.345Z,100738.63
2023-01-13T20:35:11.272Z,100723.88
2023-01-13T20:37:40.214Z,100717.97
2023-01-13T20:40:08.770Z,100712.97
2023-01-13T20:42:45.501Z,100718.25
2023-01-13T20:45:17.290Z,100720.13
2023-01-13T20:47:45.687Z,100717.53
2023-01-13T20:50:13.642Z,100707.69
2023-01-13T20:52:40.907Z,100705.47
2023-01-13T20:55:08.643Z,100731.16
2023-01-13T20:57:35.925Z,100737.22
2023-01-13T21:00:04.997Z,100742.34
2023-01-13T21:02:32.456Z,100755.34
2023-01-13T21:04:59.494Z,100753.59
2023-01-13T21:07:26.932Z,100751.13
2023-01-13T21:09:53.739Z,100763.13
2023-01-13T21:12:39.904Z,100746.78
2023-01-13T21:15:20.203Z,100731.13
2023-01-13T21:18:09.223Z,100735.69
2023-01-13T21:20:37.514Z,100739.94
2023-01-13T21:23:05.734Z,100723.44
2023-01-13T21:25:35.140Z,100722.69
2023-01-13T21:28:06.307Z,100720.06
2023-01-13T21:30:34.102Z,100709.63
2023-01-13T21:33:03.919Z,100713.03
2023-01-13T21:35:31.110Z,100721.59
2023-01-13T21:37:59.090Z,100713.81
2023-01-13T21:40:26.293Z,100697.25
2023-01-13T21:43:12.720Z,100688.66
2023-01-13T21:45:58.903Z,100683.66
2023-01-13T21:48:26.351Z,100689.41
2023-01-13T21:50:53.139Z,100695.88
2023-01-13T21:53:20.255Z,100694.97
2023-01-13T21:55:51.727Z,100699.59
2023-01-13T21:58:18.800Z,100673.34
2023-01-13T22:00:45.983Z,100666.75
2023-01-13T22:03:18.326Z,100661.28
2023-01-13T22:05:46.149Z,100669.09
2023-01-13T22:08:13.717Z,100680.13
2023-01-13T22:10:57.251Z,100688.41
2023-01-13T22:13:43.685Z,100708.34
2023-01-13T22:16:10.718Z,100727.00
2023-01-13T22:18:40.854Z,100750.13
2023-01-13T22:21:08.072Z,100758.94
2023-01-13T22:23:35.126Z,100773.13
2023-01-13T22:26:06.542Z,100790.72
2023-01-13T22:28:43.442Z,100794.97
2023-01-13T22:31:12.339Z,100791.34
2023-01-13T22:33:41.149Z,100792.94
2023-01-13T22:36:11.643Z,100808.47
2023-01-13T22:38:39.296Z,100802.22
2023-01-13T22:41:09.574Z,100796.94
2023-01-13T22:43:38.028Z,100800.28
2023-01-13T22:46:08.328Z,100801.03
2023-01-13T22:48:36.015Z,100814.31
2023-01-13T22:51:14.778Z,100819.44
2023-01-13T22:53:42.587Z,100811.47
2023-01-13T22:56:16.805Z,100813.13
2023-01-13T22:58:44.404Z,100802.56
2023-01-13T23:01:14.036Z,100797.16
2023-01-13T23:03:42.091Z,100795.41
2023-01-13T23:06:09.017Z,100783.97
2023-01-13T23:08:36.409Z,100776.25
2023-01-13T23:11:08.516Z,100769.31
2023-01-13T23:13:38.283Z,100764.84
2023-01-13T23:16:11.176Z,100754.13
2023-01-13T23:18:39.315Z,100746.06
2023-01-13T23:21:09.933Z,100735.03
2023-01-13T23:23:37.665Z,100708.66
2023-01-13T23:26:05.752Z,100707.09
2023-01-13T23:28:34.348Z,100715.28
2023-01-13T23:31:05.290Z,100730.06
2023-01-13T23:33:32.468Z,100734.50
2023-01-13T23:36:02.703Z,100729.50
2023-01-13T23:38:30.222Z,100727.63
2023-01-13T23:40:57.431Z,100716.38
2023-01-13T23:43:28.418Z,100717.31
2023-01-13T23:46:03.432Z,100729.75
2023-01-13T23:48:30.758Z,100721.50
2023-01-13T23:50:59.646Z,100731.47
2023-01-13T23:53:33.588Z,100725.13
2023-01-13T23:56:02.292Z,100716.44
2023-01-13T23:58:29.849Z,100713.34
